sensor_id;sensor_type;location;lat;lon;timestamp;pressure;altitude;pressure_sealevel;temperature;humidity
2563;BME280;1291;51.420;6.970;2022-12-18T00:03:51;101154.97;;;8.95;27.46
2563;BME280;1291;51.420;6.970;2022-12-18T00:06:18;101151.09;;;9.93;26.19
2563;BME280;1291;51.420;6.970;2022-12-18T00:08:44;101160.09;;;8.77;27.31
2563;BME280;1291;51.420;6.970;2022-12-18T00:11:15;101165.59;;;10.25;26.17
2563;BME280;1291;51.420;6.970;2022-12-18T00:13:41;101165.88;;;9.76;26.65
2563;BME280;1291;51.420;6.970;2022-12-18T00:16:10;101169.34;;;9.77;26.18
2563;BME280;1291;51.420;6.970;2022-12-18T00:18:40;101170.63;;;9.67;26.44
2563;BME280;1291;51.420;6.970;2022-12-18T00:21:07;101167.25;;;9.87;26.13
2563;BME280;1291;51.420;6.970;2022-12-18T00:23:34;101171.69;;;10.08;25.87
2563;BME280;1291;51.420;6.970;2022-12-18T00:26:06;101161.75;;;9.99;25.41
2563;BME280;1291;51.420;6.970;2022-12-18T00:28:33;101154.50;;;10.10;26.40
2563;BME280;1291;51.420;6.970;2022-12-18T00:31:06;101152.03;;;10.13;25.76
2563;BME280;1291;51.420;6.970;2022-12-18T00:33:32;101153.47;;;10.26;25.82
2563;BME280;1291;51.420;6.970;2022-12-18T00:36:17;101163.31;;;10.51;25.13
2563;BME280;1291;51.420;6.970;2022-12-18T00:38:46;101162.91;;;10.24;24.66
2563;BME280;1291;51.420;6.970;2022-12-18T00:41:14;101160.69;;;11.11;24.67
2563;BME280;1291;51.420;6.970;2022-12-18T00:44:00;101166.78;;;10.71;25.12
2563;BME280;1291;51.420;6.970;2022-12-18T00:46:25;101154.31;;;10.83;24.27
2563;BME280;1291;51.420;6.970;2022-12-18T00:48:50;101147.28;;;9.31;26.31
2563;BME280;1291;51.420;6.970;2022-12-18T00:51:16;101153.31;;;10.60;24.50
2563;BME280;1291;51.420;6.970;2022-12-18T00:53:41;101156.69;;;9.83;25.82
2563;BME280;1291;51.420;6.970;2022-12-18T00:56:09;101158.47;;;10.21;24.95
2563;BME280;1291;51.420;6.970;2022-12-18T00:58:35;101155.56;;;9.24;26.67
2563;BME280;1291;51.420;6.970;2022-12-18T01:01:00;101146.97;;;10.34;25.25
2563;BME280;1291;51.420;6.970;2022-12-18T01:03:25;101147.09;;;10.96;24.61
2563;BME280;1291;51.420;6.970;2022-12-18T01:05:51;101151.63;;;10.80;24.51
2563;BME280;1291;51.420;6.970;2022-12-18T01:08:16;101152.66;;;10.27;24.96
2563;BME280;1291;51.420;6.970;2022-12-18T01:10:41;101157.09;;;10.47;25.18
2563;BME280;1291;51.420;6.970;2022-12-18T01:13:07;101158.97;;;9.95;25.55
2563;BME280;1291;51.420;6.970;2022-12-18T01:15:32;101158.94;;;10.13;25.74
2563;BME280;1291;51.420;6.970;2022-12-18T01:17:57;101156.81;;;10.04;25.96
2563;BME280;1291;51.420;6.970;2022-12-18T01:20:23;101151.97;;;9.94;26.66
2563;BME280;1291;51.420;6.970;2022-12-18T01:22:48;101157.66;;;8.64;28.06
2563;BME280;1291;51.420;6.970;2022-12-18T01:25:14;101159.59;;;10.65;25.43
2563;BME280;1291;51.420;6.970;2022-12-18T01:27:39;101155.47;;;8.88;28.03
2563;BME280;1291;51.420;6.970;2022-12-18T01:30:05;101149.81;;;8.79;28.38
2563;BME280;1291;51.420;6.970;2022-12-18T01:32:31;101156.72;;;10.02;26.64
2563;BME280;1291;51.420;6.970;2022-12-18T01:34:57;101149.31;;;10.10;26.82
2563;BME280;1291;51.420;6.970;2022-12-18T01:37:22;101156.09;;;9.88;26.88
2563;BME280;1291;51.420;6.970;2022-12-18T01:39:48;101151.34;;;9.62;27.44
2563;BME280;1291;51.420;6.970;2022-12-18T01:42:15;101150.44;;;9.79;26.94
2563;BME280;1291;51.420;6.970;2022-12-18T01:52:45;101134.72;;;10.90;26.06
2563;BME280;1291;51.420;6.970;2022-12-18T01:55:12;101138.84;;;10.65;26.35
2563;BME280;1291;51.420;6.970;2022-12-18T01:57:42;101129.25;;;9.88;27.05
2563;BME280;1291;51.420;6.970;2022-12-18T02:00:14;101127.28;;;9.64;27.40
2563;BME280;1291;51.420;6.970;2022-12-18T02:02:44;101126.66;;;9.70;28.22
2563;BME280;1291;51.420;6.970;2022-12-18T02:05:11;101135.25;;;10.24;27.31
2563;BME280;1291;51.420;6.970;2022-12-18T02:10:45;101132.28;;;10.35;26.99
2563;BME280;1291;51.420;6.970;2022-12-18T02:18:43;101147.09;;;10.96;26.12
2563;BME280;1291;51.420;6.970;2022-12-18T02:24:37;101148.28;;;10.44;26.90
2563;BME280;1291;51.420;6.970;2022-12-18T02:27:08;101146.16;;;10.95;26.22
2563;BME280;1291;51.420;6.970;2022-12-18T02:29:39;101144.81;;;10.25;27.50
2563;BME280;1291;51.420;6.970;2022-12-18T02:32:12;101133.19;;;10.35;26.94
2563;BME280;1291;51.420;6.970;2022-12-18T02:34:40;101136.31;;;10.47;27.10
2563;BME280;1291;51.420;6.970;2022-12-18T02:37:09;101129.13;;;10.81;26.13
2563;BME280;1291;51.420;6.970;2022-12-18T02:39:37;101119.09;;;10.69;26.75
2563;BME280;1291;51.420;6.970;2022-12-18T02:42:04;101120.38;;;10.59;26.91
2563;BME280;1291;51.420;6.970;2022-12-18T02:44:34;101121.69;;;11.10;25.72
2563;BME280;1291;51.420;6.970;2022-12-18T02:46:59;101123.91;;;11.65;25.20
2563;BME280;1291;51.420;6.970;2022-12-18T02:52:10;101128.56;;;10.88;26.02
2563;BME280;1291;51.420;6.970;2022-12-18T02:57:49;101135.44;;;10.66;26.16
2563;BME280;1291;51.420;6.970;2022-12-18T03:00:21;101133.47;;;10.82;26.83
2563;BME280;1291;51.420;6.970;2022-12-18T03:05:39;101136.34;;;11.09;26.39
2563;BME280;1291;51.420;6.970;2022-12-18T03:08:11;101129.63;;;11.56;25.04
2563;BME280;1291;51.420;6.970;2022-12-18T03:10:45;101129.22;;;10.63;26.87
2563;BME280;1291;51.420;6.970;2022-12-18T03:13:28;101127.34;;;10.21;27.50
2563;BME280;1291;51.420;6.970;2022-12-18T03:15:56;101131.91;;;10.66;26.72
2563;BME280;1291;51.420;6.970;2022-12-18T03:18:27;101125.25;;;10.32;27.17
2563;BME280;1291;51.420;6.970;2022-12-18T03:20:57;101121.56;;;10.09;27.17
2563;BME280;1291;51.420;6.970;2022-12-18T03:23:27;101108.78;;;11.13;26.19
2563;BME280;1291;51.420;6.970;2022-12-18T03:25:58;101107.78;;;10.88;26.01
2563;BME280;1291;51.420;6.970;2022-12-18T03:28:26;101106.31;;;10.54;26.68
2563;BME280;1291;51.420;6.970;2022-12-18T03:30:57;101113.69;;;9.88;27.93
2563;BME280;1291;51.420;6.970;2022-12-18T03:33:32;101109.91;;;10.19;26.85
2563;BME280;1291;51.420;6.970;2022-12-18T03:36:00;101112.59;;;11.21;25.58
2563;BME280;1291;51.420;6.970;2022-12-18T03:38:26;101116.16;;;10.61;26.51
2563;BME280;1291;51.420;6.970;2022-12-18T03:44:10;101108.53;;;11.27;25.60
2563;BME280;1291;51.420;6.970;2022-12-18T03:47:06;101115.50;;;11.50;25.14
2563;BME280;1291;51.420;6.970;2022-12-18T03:52:30;101114.13;;;11.16;24.88
2563;BME280;1291;51.420;6.970;2022-12-18T03:54:58;101118.97;;;12.16;23.87
2563;BME280;1291;51.420;6.970;2022-12-18T03:57:26;101115.22;;;12.32;23.72
2563;BME280;1291;51.420;6.970;2022-12-18T04:00:00;101110.81;;;11.41;24.22
2563;BME280;1291;51.420;6.970;2022-12-18T04:02:31;101104.41;;;11.76;24.32
2563;BME280;1291;51.420;6.970;2022-12-18T04:05:01;101112.81;;;11.92;24.11
2563;BME280;1291;51.420;6.970;2022-12-18T04:07:28;101110.69;;;10.55;26.11
2563;BME280;1291;51.420;6.970;2022-12-18T04:09:55;101100.88;;;11.74;24.24
2563;BME280;1291;51.420;6.970;2022-12-18T04:12:33;101104.78;;;11.21;24.60
2563;BME280;1291;51.420;6.970;2022-12-18T04:14:58;101090.47;;;11.74;24.21
2563;BME280;1291;51.420;6.970;2022-12-18T04:17:23;101096.06;;;11.85;24.04
2563;BME280;1291;51.420;6.970;2022-12-18T04:19:49;101102.41;;;11.92;23.83
2563;BME280;1291;51.420;6.970;2022-12-18T04:22:14;101113.72;;;10.85;25.20
2563;BME280;1291;51.420;6.970;2022-12-18T04:24:40;101098.47;;;11.58;24.54
2563;BME280;1291;51.420;6.970;2022-12-18T04:27:05;101106.97;;;11.10;24.56
2563;BME280;1291;51.420;6.970;2022-12-18T04:29:31;101104.50;;;10.92;25.42
2563;BME280;1291;51.420;6.970;2022-12-18T04:31:56;101107.72;;;11.07;25.03
2563;BME280;1291;51.420;6.970;2022-12-18T04:34:21;101108.34;;;10.81;24.97
2563;BME280;1291;51.420;6.970;2022-12-18T04:36:47;101103.41;;;11.73;24.40
2563;BME280;1291;51.420;6.970;2022-12-18T04:39:13;101099.47;;;10.56;25.34
2563;BME280;1291;51.420;6.970;2022-12-18T04:41:38;101094.28;;;10.37;25.69
2563;BME280;1291;51.420;6.970;2022-12-18T04:44:04;101092.31;;;11.33;24.91
2563;BME280;1291;51.420;6.970;2022-12-18T04:46:32;101088.22;;;11.17;24.90
2563;BME280;1291;51.420;6.970;2022-12-18T04:48:58;101092.13;;;11.07;24.79
2563;BME280;1291;51.420;6.970;2022-12-18T04:51:23;101087.59;;;11.45;24.71
2563;BME280;1291;51.420;6.970;2022-12-18T04:53:48;101089.16;;;10.58;25.66
2563;BME280;1291;51.420;6.970;2022-12-18T04:56:15;101094.91;;;11.12;24.93
2563;BME280;1291;51.420;6.970;2022-12-18T04:58:43;101088.53;;;11.04;25.00
2563;BME280;1291;51.420;6.970;2022-12-18T05:01:09;101090.81;;;10.36;25.69
2563;BME280;1291;51.420;6.970;2022-12-18T05:03:36;101088.78;;;10.69;25.42
2563;BME280;1291;51.420;6.970;2022-12-18T05:06:02;101095.25;;;10.01;25.90
2563;BME280;1291;51.420;6.970;2022-12-18T05:08:27;101081.97;;;10.52;25.40
2563;BME280;1291;51.420;6.970;2022-12-18T05:11:04;101077.59;;;10.71;25.28
2563;BME280;1291;51.420;6.970;2022-12-18T05:13:31;101083.78;;;10.53;25.98
2563;BME280;1291;51.420;6.970;2022-12-18T05:15:56;101076.09;;;10.17;25.85
2563;BME280;1291;51.420;6.970;2022-12-18T05:18:25;101071.97;;;9.28;27.10
2563;BME280;1291;51.420;6.970;2022-12-18T05:20:51;101073.38;;;10.14;25.98
2563;BME280;1291;51.420;6.970;2022-12-18T05:23:17;101070.19;;;9.82;26.65
2563;BME280;1291;51.420;6.970;2022-12-18T05:25:50;101076.31;;;10.22;25.63
2563;BME280;1291;51.420;6.970;2022-12-18T05:28:15;101074.53;;;10.60;25.38
2563;BME280;1291;51.420;6.970;2022-12-18T05:30:40;101071.84;;;10.37;25.77
2563;BME280;1291;51.420;6.970;2022-12-18T05:33:06;101077.00;;;10.18;25.88
2563;BME280;1291;51.420;6.970;2022-12-18T05:35:31;101075.88;;;10.13;25.90
2563;BME280;1291;51.420;6.970;2022-12-18T05:37:56;101077.88;;;10.98;25.14
2563;BME280;1291;51.420;6.970;2022-12-18T05:40:22;101082.34;;;10.40;25.68
2563;BME280;1291;51.420;6.970;2022-12-18T05:42:47;101088.00;;;10.51;24.92
2563;BME280;1291;51.420;6.970;2022-12-18T05:45:12;101084.84;;;11.20;24.19
2563;BME280;1291;51.420;6.970;2022-12-18T05:47:37;101089.59;;;11.96;23.50
2563;BME280;1291;51.420;6.970;2022-12-18T05:50:03;101078.84;;;11.88;23.40
2563;BME280;1291;51.420;6.970;2022-12-18T05:52:30;101094.28;;;11.39;23.54
2563;BME280;1291;51.420;6.970;2022-12-18T05:54:55;101097.75;;;11.39;23.75
2563;BME280;1291;51.420;6.970;2022-12-18T05:57:20;101096.25;;;11.67;23.40
2563;BME280;1291;51.420;6.970;2022-12-18T05:59:46;101092.97;;;11.94;22.89
2563;BME280;1291;51.420;6.970;2022-12-18T06:02:11;101103.66;;;12.01;22.84
2563;BME280;1291;51.420;6.970;2022-12-18T06:04:36;101103.38;;;11.94;23.11
2563;BME280;1291;51.420;6.970;2022-12-18T06:07:02;101112.22;;;11.99;23.00
2563;BME280;1291;51.420;6.970;2022-12-18T06:09:28;101117.34;;;11.96;23.00
2563;BME280;1291;51.420;6.970;2022-12-18T06:11:54;101124.47;;;12.01;23.04
2563;BME280;1291;51.420;6.970;2022-12-18T06:14:19;101131.69;;;12.09;22.67
2563;BME280;1291;51.420;6.970;2022-12-18T06:16:45;101136.09;;;12.10;22.77
2563;BME280;1291;51.420;6.970;2022-12-18T06:19:14;101142.84;;;11.61;22.69
2563;BME280;1291;51.420;6.970;2022-12-18T06:21:41;101150.09;;;11.91;22.46
2563;BME280;1291;51.420;6.970;2022-12-18T06:24:06;101146.03;;;11.76;22.69
2563;BME280;1291;51.420;6.970;2022-12-18T06:26:32;101131.97;;;12.16;22.33
2563;BME280;1291;51.420;6.970;2022-12-18T06:28:57;101130.97;;;12.13;22.46
2563;BME280;1291;51.420;6.970;2022-12-18T06:31:22;101134.81;;;12.22;21.82
2563;BME280;1291;51.420;6.970;2022-12-18T06:33:48;101138.50;;;12.05;22.23
2563;BME280;1291;51.420;6.970;2022-12-18T06:36:13;101128.44;;;12.14;22.18
2563;BME280;1291;51.420;6.970;2022-12-18T06:38:41;101129.97;;;12.09;22.38
2563;BME280;1291;51.420;6.970;2022-12-18T06:41:12;101126.41;;;12.07;22.43
2563;BME280;1291;51.420;6.970;2022-12-18T06:43:38;101117.09;;;12.12;22.44
2563;BME280;1291;51.420;6.970;2022-12-18T06:46:04;101111.44;;;12.01;22.40
2563;BME280;1291;51.420;6.970;2022-12-18T06:48:30;101111.28;;;11.97;22.43
2563;BME280;1291;51.420;6.970;2022-12-18T06:50:56;101106.53;;;11.86;22.70
2563;BME280;1291;51.420;6.970;2022-12-18T06:53:22;101107.41;;;11.87;22.58
2563;BME280;1291;51.420;6.970;2022-12-18T06:55:47;101110.59;;;11.14;23.18
2563;BME280;1291;51.420;6.970;2022-12-18T06:58:12;101098.41;;;12.00;22.40
2563;BME280;1291;51.420;6.970;2022-12-18T07:00:38;101094.84;;;11.11;22.91
2563;BME280;1291;51.420;6.970;2022-12-18T07:03:03;101083.44;;;11.28;23.03
2563;BME280;1291;51.420;6.970;2022-12-18T07:05:29;101101.66;;;10.66;23.56
2563;BME280;1291;51.420;6.970;2022-12-18T07:07:54;101096.59;;;10.69;23.91
2563;BME280;1291;51.420;6.970;2022-12-18T07:10:22;101083.84;;;9.78;24.20
2563;BME280;1291;51.420;6.970;2022-12-18T07:12:48;101078.44;;;9.74;24.80
2563;BME280;1291;51.420;6.970;2022-12-18T07:15:13;101079.56;;;9.98;24.52
2563;BME280;1291;51.420;6.970;2022-12-18T07:17:38;101080.34;;;10.54;24.26
2563;BME280;1291;51.420;6.970;2022-12-18T07:20:04;101086.09;;;9.70;24.50
2563;BME280;1291;51.420;6.970;2022-12-18T07:22:29;101084.94;;;9.83;24.45
2563;BME280;1291;51.420;6.970;2022-12-18T07:24:55;101087.44;;;10.58;24.12
2563;BME280;1291;51.420;6.970;2022-12-18T07:27:20;101086.22;;;10.31;23.83
2563;BME280;1291;51.420;6.970;2022-12-18T07:29:46;101072.78;;;11.22;22.91
2563;BME280;1291;51.420;6.970;2022-12-18T07:32:11;101084.69;;;10.16;24.37
2563;BME280;1291;51.420;6.970;2022-12-18T07:34:37;101082.53;;;10.25;23.78
2563;BME280;1291;51.420;6.970;2022-12-18T07:37:02;101078.56;;;10.14;23.97
2563;BME280;1291;51.420;6.970;2022-12-18T07:39:27;101058.78;;;10.97;22.78
2563;BME280;1291;51.420;6.970;2022-12-18T07:41:53;101053.03;;;10.23;24.15
2563;BME280;1291;51.420;6.970;2022-12-18T07:44:37;101057.09;;;9.79;24.55
2563;BME280;1291;51.420;6.970;2022-12-18T07:47:02;101063.69;;;10.70;22.97
2563;BME280;1291;51.420;6.970;2022-12-18T07:49:28;101066.31;;;11.12;22.69
2563;BME280;1291;51.420;6.970;2022-12-18T07:51:55;101056.63;;;11.52;22.53
2563;BME280;1291;51.420;6.970;2022-12-18T07:54:22;101066.38;;;10.93;22.46
2563;BME280;1291;51.420;6.970;2022-12-18T07:56:47;101059.16;;;11.06;22.08
2563;BME280;1291;51.420;6.970;2022-12-18T07:59:13;101055.91;;;10.70;22.87
2563;BME280;1291;51.420;6.970;2022-12-18T08:01:38;101066.63;;;11.63;21.84
2563;BME280;1291;51.420;6.970;2022-12-18T08:04:04;101061.66;;;11.70;21.66
2563;BME280;1291;51.420;6.970;2022-12-18T08:06:29;101058.72;;;12.30;20.89
2563;BME280;1291;51.420;6.970;2022-12-18T08:08:55;101057.41;;;12.66;20.86
2563;BME280;1291;51.420;6.970;2022-12-18T08:11:21;101064.69;;;11.14;21.91
2563;BME280;1291;51.420;6.970;2022-12-18T08:13:47;101054.78;;;12.66;20.76
2563;BME280;1291;51.420;6.970;2022-12-18T08:16:12;101055.81;;;11.53;21.70
2563;BME280;1291;51.420;6.970;2022-12-18T08:18:38;101050.84;;;11.15;21.60
2563;BME280;1291;51.420;6.970;2022-12-18T08:21:17;101041.19;;;11.56;21.81
2563;BME280;1291;51.420;6.970;2022-12-18T08:23:43;101035.84;;;10.87;22.10
2563;BME280;1291;51.420;6.970;2022-12-18T08:26:10;101042.13;;;11.81;21.24
2563;BME280;1291;51.420;6.970;2022-12-18T08:28:36;101040.03;;;11.04;22.28
2563;BME280;1291;51.420;6.970;2022-12-18T08:31:01;101034.72;;;10.40;22.96
2563;BME280;1291;51.420;6.970;2022-12-18T08:33:27;101024.25;;;12.13;21.50
2563;BME280;1291;51.420;6.970;2022-12-18T08:35:53;101015.22;;;11.13;22.07
2563;BME280;1291;51.420;6.970;2022-12-18T08:38:18;101015.13;;;12.00;21.45
2563;BME280;1291;51.420;6.970;2022-12-18T08:40:43;101008.69;;;10.38;22.48
2563;BME280;1291;51.420;6.970;2022-12-18T08:43:10;101001.41;;;11.36;21.60
2563;BME280;1291;51.420;6.970;2022-12-18T08:45:54;100994.72;;;10.56;22.83
2563;BME280;1291;51.420;6.970;2022-12-18T08:48:20;100998.59;;;11.30;21.32
2563;BME280;1291;51.420;6.970;2022-12-18T08:51:03;101006.97;;;11.23;21.76
2563;BME280;1291;51.420;6.970;2022-12-18T08:53:29;101005.88;;;11.39;21.82
2563;BME280;1291;51.420;6.970;2022-12-18T08:55:56;101007.28;;;11.53;21.40
2563;BME280;1291;51.420;6.970;2022-12-18T08:58:21;101000.22;;;12.45;20.85
2563;BME280;1291;51.420;6.970;2022-12-18T09:00:47;101005.78;;;12.56;20.63
2563;BME280;1291;51.420;6.970;2022-12-18T09:03:14;101012.66;;;11.35;21.28
2563;BME280;1291;51.420;6.970;2022-12-18T09:05:39;101007.31;;;13.02;20.13
2563;BME280;1291;51.420;6.970;2022-12-18T09:08:05;101009.47;;;12.12;20.88
2563;BME280;1291;51.420;6.970;2022-12-18T09:10:31;101004.44;;;12.42;20.34
2563;BME280;1291;51.420;6.970;2022-12-18T09:12:56;100997.53;;;12.95;20.22
2563;BME280;1291;51.420;6.970;2022-12-18T09:15:22;100987.66;;;12.34;20.27
2563;BME280;1291;51.420;6.970;2022-12-18T09:17:47;100991.06;;;12.31;20.33
2563;BME280;1291;51.420;6.970;2022-12-18T09:20:13;100983.50;;;12.64;20.24
2563;BME280;1291;51.420;6.970;2022-12-18T09:22:38;100988.25;;;13.03;19.79
2563;BME280;1291;51.420;6.970;2022-12-18T09:25:04;100991.50;;;12.96;19.67
2563;BME280;1291;51.420;6.970;2022-12-18T09:27:32;100980.06;;;13.77;19.17
2563;BME280;1291;51.420;6.970;2022-12-18T09:29:57;100975.59;;;12.36;19.94
2563;BME280;1291;51.420;6.970;2022-12-18T09:32:23;100976.19;;;13.34;18.81
2563;BME280;1291;51.420;6.970;2022-12-18T09:34:48;100977.84;;;13.32;18.95
2563;BME280;1291;51.420;6.970;2022-12-18T09:37:14;100981.63;;;13.71;18.70
2563;BME280;1291;51.420;6.970;2022-12-18T09:39:39;100974.09;;;12.70;19.23
2563;BME280;1291;51.420;6.970;2022-12-18T09:42:04;100981.84;;;12.66;19.26
2563;BME280;1291;51.420;6.970;2022-12-18T09:44:41;100991.59;;;13.85;18.50
2563;BME280;1291;51.420;6.970;2022-12-18T09:49:58;100986.00;;;14.35;17.82
2563;BME280;1291;51.420;6.970;2022-12-18T09:52:37;100991.16;;;14.66;17.88
2563;BME280;1291;51.420;6.970;2022-12-18T09:55:36;100996.28;;;13.37;18.92
2563;BME280;1291;51.420;6.970;2022-12-18T09:58:39;100995.63;;;14.38;18.09
2563;BME280;1291;51.420;6.970;2022-12-18T10:01:00;100987.50;;;14.26;18.15
2563;BME280;1291;51.420;6.970;2022-12-18T10:03:26;100984.69;;;13.88;18.24
2563;BME280;1291;51.420;6.970;2022-12-18T10:09:23;100969.53;;;14.06;18.17
2563;BME280;1291;51.420;6.970;2022-12-18T10:20:21;100956.38;;;14.01;17.91
2563;BME280;1291;51.420;6.970;2022-12-18T10:26:03;100931.22;;;15.51;17.30
2563;BME280;1291;51.420;6.970;2022-12-18T10:28:31;100931.44;;;16.06;16.81
2563;BME280;1291;51.420;6.970;2022-12-18T10:30:57;100936.00;;;14.90;17.45
2563;BME280;1291;51.420;6.970;2022-12-18T10:33:27;100938.78;;;15.38;17.39
2563;BME280;1291;51.420;6.970;2022-12-18T10:35:53;100938.19;;;15.11;17.63
2563;BME280;1291;51.420;6.970;2022-12-18T10:46:17;100929.81;;;16.12;17.40
2563;BME280;1291;51.420;6.970;2022-12-18T10:54:14;100925.06;;;15.49;17.67
2563;BME280;1291;51.420;6.970;2022-12-18T10:56:41;100915.63;;;15.99;16.86
2563;BME280;1291;51.420;6.970;2022-12-18T10:59:09;100900.06;;;16.09;17.00
2563;BME280;1291;51.420;6.970;2022-12-18T11:01:58;100890.69;;;16.21;17.28
2563;BME280;1291;51.420;6.970;2022-12-18T11:04:24;100908.16;;;16.23;17.26
2563;BME280;1291;51.420;6.970;2022-12-18T11:09:20;100893.47;;;16.32;16.93
2563;BME280;1291;51.420;6.970;2022-12-18T11:14:52;100899.16;;;16.60;17.17
2563;BME280;1291;51.420;6.970;2022-12-18T11:17:28;100892.75;;;16.41;17.26
2563;BME280;1291;51.420;6.970;2022-12-18T11:19:57;100888.81;;;16.69;17.15
2563;BME280;1291;51.420;6.970;2022-12-18T11:22:26;100889.81;;;16.76;16.97
2563;BME280;1291;51.420;6.970;2022-12-18T11:25:05;100879.47;;;16.85;17.07
2563;BME280;1291;51.420;6.970;2022-12-18T11:27:32;100874.69;;;16.59;17.11
2563;BME280;1291;51.420;6.970;2022-12-18T11:30:23;100877.94;;;17.01;17.21
2563;BME280;1291;51.420;6.970;2022-12-18T11:32:50;100874.19;;;16.82;17.34
2563;BME280;1291;51.420;6.970;2022-12-18T11:35:20;100879.25;;;16.73;17.43
2563;BME280;1291;51.420;6.970;2022-12-18T11:38:12;100872.25;;;16.72;17.29
2563;BME280;1291;51.420;6.970;2022-12-18T11:40:44;100869.03;;;16.88;17.40
2563;BME280;1291;51.420;6.970;2022-12-18T11:43:15;100851.25;;;16.69;17.44
2563;BME280;1291;51.420;6.970;2022-12-18T11:45:54;100845.38;;;16.85;17.22
2563;BME280;1291;51.420;6.970;2022-12-18T11:48:24;100834.06;;;16.89;17.12
2563;BME280;1291;51.420;6.970;2022-12-18T11:51:08;100823.25;;;16.66;17.38
2563;BME280;1291;51.420;6.970;2022-12-18T11:53:35;100835.03;;;16.96;17.55
2563;BME280;1291;51.420;6.970;2022-12-18T11:56:39;100838.69;;;16.48;17.72
2563;BME280;1291;51.420;6.970;2022-12-18T12:01:54;100836.22;;;16.57;17.27
2563;BME280;1291;51.420;6.970;2022-12-18T12:24:23;100828.91;;;14.97;18.86
2563;BME280;1291;51.420;6.970;2022-12-18T12:32:29;100820.00;;;14.88;18.82
2563;BME280;1291;51.420;6.970;2022-12-18T12:38:08;100810.09;;;14.36;19.20
2563;BME280;1291;51.420;6.970;2022-12-18T12:41:05;100807.22;;;15.00;18.39
2563;BME280;1291;51.420;6.970;2022-12-18T12:43:52;100803.78;;;15.47;18.26
2563;BME280;1291;51.420;6.970;2022-12-18T12:46:19;100808.88;;;14.96;18.68
2563;BME280;1291;51.420;6.970;2022-12-18T12:48:50;100810.53;;;15.35;18.46
2563;BME280;1291;51.420;6.970;2022-12-18T12:51:23;100813.91;;;14.13;18.97
2563;BME280;1291;51.420;6.970;2022-12-18T12:53:49;100810.44;;;14.88;18.53
2563;BME280;1291;51.420;6.970;2022-12-18T12:56:17;100801.81;;;15.82;17.96
2563;BME280;1291;51.420;6.970;2022-12-18T12:58:51;100795.06;;;15.48;18.09
2563;BME280;1291;51.420;6.970;2022-12-18T13:01:41;100798.09;;;16.23;17.88
2563;BME280;1291;51.420;6.970;2022-12-18T13:04:19;100794.09;;;15.90;17.94
2563;BME280;1291;51.420;6.970;2022-12-18T13:06:56;100805.78;;;15.61;18.54
2563;BME280;1291;51.420;6.970;2022-12-18T13:09:24;100806.66;;;14.75;19.40
2563;BME280;1291;51.420;6.970;2022-12-18T13:11:50;100808.44;;;14.76;19.51
2563;BME280;1291;51.420;6.970;2022-12-18T13:14:36;100796.00;;;15.06;19.04
2563;BME280;1291;51.420;6.970;2022-12-18T13:20:02;100789.59;;;15.82;18.39
2563;BME280;1291;51.420;6.970;2022-12-18T13:22:33;100793.09;;;14.16;20.03
2563;BME280;1291;51.420;6.970;2022-12-18T13:24:59;100776.63;;;15.41;19.13
2563;BME280;1291;51.420;6.970;2022-12-18T13:38:35;100761.53;;;13.70;20.65
2563;BME280;1291;51.420;6.970;2022-12-18T13:41:04;100746.72;;;14.43;19.75
2563;BME280;1291;51.420;6.970;2022-12-18T13:43:51;100746.34;;;13.23;21.16
2563;BME280;1291;51.420;6.970;2022-12-18T13:49:22;100735.28;;;15.22;19.52
2563;BME280;1291;51.420;6.970;2022-12-18T13:51:50;100727.56;;;13.69;20.54
2563;BME280;1291;51.420;6.970;2022-12-18T13:54:35;100720.28;;;14.69;19.98
2563;BME280;1291;51.420;6.970;2022-12-18T13:57:02;100726.94;;;14.97;19.51
2563;BME280;1291;51.420;6.970;2022-12-18T13:59:34;100714.88;;;15.04;18.83
2563;BME280;1291;51.420;6.970;2022-12-18T14:02:12;100708.06;;;13.91;20.31
2563;BME280;1291;51.420;6.970;2022-12-18T14:04:38;100716.94;;;15.20;18.89
2563;BME280;1291;51.420;6.970;2022-12-18T14:07:14;100709.84;;;15.15;18.66
2563;BME280;1291;51.420;6.970;2022-12-18T14:09:47;100695.03;;;13.56;20.36
2563;BME280;1291;51.420;6.970;2022-12-18T14:12:20;100694.22;;;14.74;18.77
2563;BME280;1291;51.420;6.970;2022-12-18T14:15:09;100694.53;;;14.47;19.49
2563;BME280;1291;51.420;6.970;2022-12-18T14:17:40;100688.31;;;14.41;19.45
2563;BME280;1291;51.420;6.970;2022-12-18T14:20:13;100689.38;;;13.37;20.64
2563;BME280;1291;51.420;6.970;2022-12-18T14:22:45;100681.00;;;13.87;19.96
2563;BME280;1291;51.420;6.970;2022-12-18T14:25:19;100676.50;;;15.01;18.86
2563;BME280;1291;51.420;6.970;2022-12-18T14:27:51;100675.59;;;13.79;19.64
2563;BME280;1291;51.420;6.970;2022-12-18T14:35:31;100672.72;;;14.05;19.10
2563;BME280;1291;51.420;6.970;2022-12-18T14:40:40;100680.63;;;15.91;17.59
2563;BME280;1291;51.420;6.970;2022-12-18T14:43:10;100671.47;;;16.22;17.31
2563;BME280;1291;51.420;6.970;2022-12-18T14:45:54;100675.78;;;16.87;16.99
2563;BME280;1291;51.420;6.970;2022-12-18T14:48:21;100663.88;;;16.42;16.88
2563;BME280;1291;51.420;6.970;2022-12-18T14:50:55;100665.78;;;15.91;17.41
2563;BME280;1291;51.420;6.970;2022-12-18T14:53:36;100654.13;;;15.72;17.89
2563;BME280;1291;51.420;6.970;2022-12-18T14:56:10;100653.03;;;14.19;19.22
2563;BME280;1291;51.420;6.970;2022-12-18T14:58:38;100645.63;;;14.82;18.54
2563;BME280;1291;51.420;6.970;2022-12-18T15:01:04;100655.00;;;14.31;19.38
2563;BME280;1291;51.420;6.970;2022-12-18T15:03:33;100657.56;;;15.16;18.06
2563;BME280;1291;51.420;6.970;2022-12-18T15:06:18;100660.88;;;15.06;18.43
2563;BME280;1291;51.420;6.970;2022-12-18T15:08:49;100655.47;;;15.47;17.77
2563;BME280;1291;51.420;6.970;2022-12-18T15:14:31;100642.09;;;14.81;18.62
2563;BME280;1291;51.420;6.970;2022-12-18T15:16:59;100648.44;;;14.94;18.57
2563;BME280;1291;51.420;6.970;2022-12-18T15:19:39;100634.03;;;16.31;17.71
2563;BME280;1291;51.420;6.970;2022-12-18T15:24:42;100640.88;;;15.10;18.88
2563;BME280;1291;51.420;6.970;2022-12-18T15:27:20;100641.28;;;15.34;18.80
2563;BME280;1291;51.420;6.970;2022-12-18T15:30:20;100623.72;;;14.34;20.11
2563;BME280;1291;51.420;6.970;2022-12-18T15:32:45;100621.78;;;14.67;19.73
2563;BME280;1291;51.420;6.970;2022-12-18T15:35:21;100627.84;;;13.82;20.81
2563;BME280;1291;51.420;6.970;2022-12-18T15:37:48;100630.41;;;14.20;20.17
2563;BME280;1291;51.420;6.970;2022-12-18T15:40:19;100634.84;;;15.14;18.99